Time;durP1;ratioP1;P1;durP2;ratioP2;P2;SDS_P1;SDS_P2;PMS_P1;PMS_P2;Temp;Humidity;BMP_temperature;BMP_pressure;BME280_temperature;BME280_humidity;BME280_pressure;Samples;Min_cycle;Max_cycle;Signal;HPM_P1;HPM_P2
2022/07/16 00:02:57;;;;;;;;;;;;;;;17.89;71.11;95313.00;5134367;27;1015;-49
2022/07/16 00:05:23;;;;;;;;;;;;;;;18.05;70.63;95314.53;5134114;28;1910;-49
2022/07/16 00:07:49;;;;;;;;;;;;;;;18.04;70.65;95316.41;5134079;28;1079;-49
2022/07/16 00:10:15;;;;;;;;;;;;;;;17.95;71.40;95314.94;5134496;28;944;-49
2022/07/16 00:12:41;;;;;;;;;;;;;;;17.79;71.65;95320.66;5134104;28;1079;-49
2022/07/16 00:15:07;;;;;;;;;;;;;;;17.81;71.69;95332.09;5134378;28;1048;-49
2022/07/16 00:17:33;;;;;;;;;;;;;;;17.81;71.59;95321.28;5134213;28;968;-49
2022/07/16 00:19:59;;;;;;;;;;;;;;;17.88;71.33;95314.88;5134292;28;1037;-49
2022/07/16 00:22:25;;;;;;;;;;;;;;;17.92;71.25;95316.16;5133998;28;1036;-49
2022/07/16 00:24:51;;;;;;;;;;;;;;;17.85;71.59;95317.16;5134302;28;1980;-49
2022/07/16 00:27:18;;;;;;;;;;;;;;;17.80;71.80;95317.75;5134059;28;1851;-49
2022/07/16 00:29:44;;;;;;;;;;;;;;;17.66;71.96;95316.88;5134506;28;1015;-49
2022/07/16 00:32:10;;;;;;;;;;;;;;;17.55;72.47;95315.56;5134330;27;1060;-49
2022/07/16 00:34:36;;;;;;;;;;;;;;;17.47;72.65;95314.88;5138115;27;941;-49
2022/07/16 00:37:02;;;;;;;;;;;;;;;17.46;72.60;95327.56;5137873;27;1055;-49
2022/07/16 00:39:28;;;;;;;;;;;;;;;17.40;73.06;95325.66;5138408;27;1052;-49
2022/07/16 00:41:54;;;;;;;;;;;;;;;17.45;72.67;95335.88;5137836;27;933;-49
2022/07/16 00:44:20;;;;;;;;;;;;;;;17.38;72.54;95327.75;5120646;27;1988;-49
2022/07/16 00:46:47;;;;;;;;;;;;;;;17.41;72.73;95324.63;5117391;28;1045;-49
2022/07/16 00:49:14;;;;;;;;;;;;;;;17.33;72.82;95338.31;5117355;28;962;-49
2022/07/16 00:51:42;;;;;;;;;;;;;;;17.20;73.11;95332.81;5123613;27;1238;-49
2022/07/16 00:54:08;;;;;;;;;;;;;;;17.11;73.46;95334.81;5137987;27;976;-49
2022/07/16 00:56:34;;;;;;;;;;;;;;;17.16;73.71;95330.50;5137821;27;977;-49
2022/07/16 00:59:00;;;;;;;;;;;;;;;17.29;73.00;95321.66;5137867;27;1059;-49
2022/07/16 01:01:26;;;;;;;;;;;;;;;17.30;73.11;95327.88;5137716;27;960;-49
2022/07/16 01:03:52;;;;;;;;;;;;;;;17.28;73.00;95335.34;5137581;27;1913;-49
2022/07/16 01:06:19;;;;;;;;;;;;;;;17.09;73.37;95337.75;5137283;27;1099;-49
2022/07/16 01:08:46;;;;;;;;;;;;;;;17.16;73.15;95337.78;5137339;27;1016;-49
2022/07/16 01:11:13;;;;;;;;;;;;;;;17.17;72.91;95344.84;5137605;27;948;-49
2022/07/16 01:13:40;;;;;;;;;;;;;;;16.97;73.31;95333.91;5137473;27;995;-49
2022/07/16 01:16:08;;;;;;;;;;;;;;;16.89;74.15;95334.88;5137410;27;972;-49
2022/07/16 01:18:35;;;;;;;;;;;;;;;17.01;73.89;95337.03;5137254;27;969;-49
2022/07/16 01:21:01;;;;;;;;;;;;;;;16.94;73.92;95339.69;5137215;27;1171;-49
2022/07/16 01:23:27;;;;;;;;;;;;;;;16.76;74.88;95337.44;5137309;27;1909;-49
2022/07/16 01:25:53;;;;;;;;;;;;;;;16.64;74.72;95336.28;5137381;27;1178;-48
2022/07/16 01:28:20;;;;;;;;;;;;;;;16.60;75.12;95333.16;5136901;27;1027;-49
2022/07/16 01:30:46;;;;;;;;;;;;;;;16.71;74.92;95338.03;5137266;27;1008;-49
2022/07/16 01:33:19;;;;;;;;;;;;;;;16.81;74.52;95339.53;5136904;27;952;-49
2022/07/16 01:35:45;;;;;;;;;;;;;;;16.80;74.29;95338.72;5136769;27;1145;-49
2022/07/16 01:38:11;;;;;;;;;;;;;;;16.78;74.63;95347.00;5136966;27;1123;-49
2022/07/16 01:40:37;;;;;;;;;;;;;;;16.61;74.89;95345.63;5137142;27;957;-49
2022/07/16 01:43:03;;;;;;;;;;;;;;;16.57;74.93;95347.03;5136585;27;1859;-49
2022/07/16 01:45:29;;;;;;;;;;;;;;;16.67;74.32;95342.13;5135913;27;1909;-49
2022/07/16 01:47:55;;;;;;;;;;;;;;;16.76;73.97;95348.25;5136749;27;992;-49
2022/07/16 01:50:21;;;;;;;;;;;;;;;16.60;74.99;95341.25;5136649;27;1034;-49
2022/07/16 01:52:47;;;;;;;;;;;;;;;16.54;75.30;95350.97;5136509;27;1222;-49
2022/07/16 01:55:13;;;;;;;;;;;;;;;16.45;75.88;95349.44;5136845;27;971;-49
2022/07/16 01:57:38;;;;;;;;;;;;;;;16.50;75.35;95349.66;5136651;27;1033;-49
2022/07/16 02:00:05;;;;;;;;;;;;;;;16.54;75.23;95350.97;5136619;27;1019;-49
2022/07/16 02:02:31;;;;;;;;;;;;;;;16.71;73.99;95358.78;5136454;27;1067;-48
2022/07/16 02:04:57;;;;;;;;;;;;;;;16.76;74.16;95349.06;5136217;27;1909;-48
2022/07/16 02:07:23;;;;;;;;;;;;;;;16.68;74.42;95345.69;5136260;27;1016;-48
2022/07/16 02:09:49;;;;;;;;;;;;;;;16.60;74.63;95346.66;5118121;27;1111;-49
2022/07/16 02:12:15;;;;;;;;;;;;;;;16.33;75.77;95353.63;5136439;27;1036;-49
2022/07/16 02:14:41;;;;;;;;;;;;;;;16.29;76.32;95349.66;5136103;27;1024;-49
2022/07/16 02:17:07;;;;;;;;;;;;;;;16.35;76.00;95346.19;5136268;27;1021;-49
2022/07/16 02:19:32;;;;;;;;;;;;;;;16.45;75.37;95357.53;5135968;27;969;-49
2022/07/16 02:21:59;;;;;;;;;;;;;;;16.51;75.49;95353.22;5136414;27;957;-49
2022/07/16 02:24:25;;;;;;;;;;;;;;;16.43;75.75;95358.72;5136021;27;1998;-49
2022/07/16 02:26:51;;;;;;;;;;;;;;;16.34;76.22;95355.31;5136251;27;1088;-49
2022/07/16 02:29:17;;;;;;;;;;;;;;;16.39;75.45;95355.59;5135904;27;1074;-49
2022/07/16 02:31:43;;;;;;;;;;;;;;;16.45;75.65;95356.66;5136017;27;988;-49
2022/07/16 02:34:09;;;;;;;;;;;;;;;16.44;75.32;95363.94;5135400;27;1881;-49
2022/07/16 02:36:35;;;;;;;;;;;;;;;16.45;75.36;95362.91;5135827;27;1095;-49
2022/07/16 02:39:01;;;;;;;;;;;;;;;16.40;75.59;95366.16;5135749;27;1095;-49
2022/07/16 02:41:27;;;;;;;;;;;;;;;16.28;75.10;95369.59;5135735;27;996;-49
2022/07/16 02:43:53;;;;;;;;;;;;;;;16.09;76.50;95368.34;5121798;27;1996;-49
2022/07/16 02:46:19;;;;;;;;;;;;;;;16.13;76.21;95370.47;5114988;28;1000;-49
2022/07/16 02:48:45;;;;;;;;;;;;;;;16.24;75.87;95365.56;5114817;28;1016;-49
2022/07/16 02:51:11;;;;;;;;;;;;;;;16.41;75.15;95369.72;5116897;27;1246;-49
2022/07/16 02:53:37;;;;;;;;;;;;;;;16.48;75.26;95359.81;5135570;27;1070;-49
2022/07/16 02:56:03;;;;;;;;;;;;;;;16.37;75.73;95376.50;5135273;27;1170;-49
2022/07/16 02:58:29;;;;;;;;;;;;;;;16.29;76.06;95373.94;5135352;27;1049;-49
2022/07/16 03:00:56;;;;;;;;;;;;;;;16.27;76.50;95381.41;5135452;27;1095;-49
2022/07/16 03:03:22;;;;;;;;;;;;;;;16.27;75.91;95376.81;5135126;27;917;-49
2022/07/16 03:05:48;;;;;;;;;;;;;;;16.24;76.00;95381.75;5135228;27;1897;-49
2022/07/16 03:08:14;;;;;;;;;;;;;;;16.17;76.31;95382.53;5135393;27;1031;-49
2022/07/16 03:10:40;;;;;;;;;;;;;;;16.18;76.30;95388.75;5135204;27;956;-49
2022/07/16 03:13:06;;;;;;;;;;;;;;;16.07;76.73;95387.41;5135203;27;968;-49
2022/07/16 03:15:32;;;;;;;;;;;;;;;15.98;76.94;95393.94;5135008;27;1028;-49
2022/07/16 03:17:58;;;;;;;;;;;;;;;15.81;77.34;95394.13;5134990;27;1083;-49
2022/07/16 03:20:24;;;;;;;;;;;;;;;15.72;78.21;95392.53;5134965;27;964;-49
2022/07/16 03:22:50;;;;;;;;;;;;;;;15.85;77.12;95388.38;5135113;27;1071;-49
2022/07/16 03:25:16;;;;;;;;;;;;;;;15.83;77.40;95393.94;5134706;27;1902;-49
2022/07/16 03:27:42;;;;;;;;;;;;;;;15.84;77.16;95386.69;5134963;27;977;-48
2022/07/16 03:30:09;;;;;;;;;;;;;;;15.76;77.81;95396.56;5134617;27;1044;-49
2022/07/16 03:32:35;;;;;;;;;;;;;;;15.74;78.27;95393.19;5134642;27;1040;-49
2022/07/16 03:35:07;;;;;;;;;;;;;;;15.85;77.73;95401.84;5134505;27;1028;-49
2022/07/16 03:37:33;;;;;;;;;;;;;;;15.97;77.55;95398.50;5134864;27;1031;-49
2022/07/16 03:39:59;;;;;;;;;;;;;;;16.03;77.49;95406.84;5134489;27;1094;-49
2022/07/16 03:42:25;;;;;;;;;;;;;;;16.05;77.05;95411.03;5134644;27;1266;-49
2022/07/16 03:44:51;;;;;;;;;;;;;;;16.04;77.67;95420.13;5134427;27;1980;-49
2022/07/16 03:47:17;;;;;;;;;;;;;;;16.17;77.13;95428.38;5134540;27;1113;-48
2022/07/16 03:49:43;;;;;;;;;;;;;;;16.31;76.98;95423.16;5134703;27;988;-48
2022/07/16 03:52:09;;;;;;;;;;;;;;;16.49;76.33;95425.44;5134433;27;1166;-49
2022/07/16 03:54:35;;;;;;;;;;;;;;;16.57;76.33;95418.03;5134330;27;1000;-48
2022/07/16 03:57:01;;;;;;;;;;;;;;;16.81;75.20;95421.41;5134537;27;1016;-48
2022/07/16 03:59:27;;;;;;;;;;;;;;;16.92;75.36;95420.91;5134378;27;1035;-48
2022/07/16 04:01:53;;;;;;;;;;;;;;;16.91;75.21;95413.00;5134418;27;973;-48
2022/07/16 04:04:19;;;;;;;;;;;;;;;16.81;76.04;95415.16;5133848;27;1984;-49
2022/07/16 04:06:45;;;;;;;;;;;;;;;16.80;76.54;95414.31;5134271;27;1592;-49
2022/07/16 04:09:11;;;;;;;;;;;;;;;16.92;76.15;95415.53;5134223;28;1014;-48
2022/07/16 04:11:37;;;;;;;;;;;;;;;17.23;75.26;95424.28;5134380;28;1108;-48
2022/07/16 04:14:03;;;;;;;;;;;;;;;17.43;74.97;95411.75;5134184;28;1068;-54
2022/07/16 04:16:29;;;;;;;;;;;;;;;17.34;75.24;95421.88;5134497;28;1043;-50
2022/07/16 04:18:55;;;;;;;;;;;;;;;17.34;75.66;95424.59;5134248;28;1029;-50
2022/07/16 04:21:21;;;;;;;;;;;;;;;17.56;75.72;95429.94;5134143;28;976;-50
2022/07/16 04:23:47;;;;;;;;;;;;;;;17.81;74.82;95415.94;5134313;28;1914;-50
2022/07/16 04:26:13;;;;;;;;;;;;;;;17.97;74.04;95426.47;5133879;28;1099;-50
2022/07/16 04:28:39;;;;;;;;;;;;;;;18.03;73.96;95420.25;5134250;28;1048;-50
2022/07/16 04:31:05;;;;;;;;;;;;;;;18.15;74.51;95423.19;5133824;28;1017;-51
2022/07/16 04:33:31;;;;;;;;;;;;;;;18.34;72.01;95433.28;5115773;28;1099;-51
2022/07/16 04:35:57;;;;;;;;;;;;;;;18.48;73.10;95434.16;5133663;28;1087;-49
2022/07/16 04:38:23;;;;;;;;;;;;;;;18.69;72.10;95430.47;5134134;28;1056;-49
2022/07/16 04:40:49;;;;;;;;;;;;;;;18.89;71.38;95429.69;5133940;28;964;-49
2022/07/16 04:43:15;;;;;;;;;;;;;;;19.01;69.05;95432.63;5125490;28;1156;-49
2022/07/16 04:45:41;;;;;;;;;;;;;;;19.20;69.74;95431.81;5113240;28;1981;-49
2022/07/16 04:48:07;;;;;;;;;;;;;;;19.48;69.58;95428.91;5113280;28;1097;-49
2022/07/16 04:50:33;;;;;;;;;;;;;;;19.55;69.81;95434.31;5113475;28;1037;-49
2022/07/16 04:52:59;;;;;;;;;;;;;;;19.72;68.82;95431.16;5130613;28;1838;-49
2022/07/16 04:55:26;;;;;;;;;;;;;;;19.70;67.74;95440.34;5133896;28;1031;-49
2022/07/16 04:57:52;;;;;;;;;;;;;;;19.70;67.19;95432.19;5133999;28;975;-49
2022/07/16 05:00:18;;;;;;;;;;;;;;;19.85;67.69;95440.13;5133545;28;1225;-49
2022/07/16 05:02:56;;;;;;;;;;;;;;;19.94;66.99;95431.75;5133776;28;1046;-49
2022/07/16 05:05:22;;;;;;;;;;;;;;;19.99;67.35;95438.22;5133507;28;2349;-49
2022/07/16 05:07:49;;;;;;;;;;;;;;;20.20;66.26;95444.41;5133944;28;1039;-49
2022/07/16 05:10:15;;;;;;;;;;;;;;;20.25;65.92;95440.03;5133600;28;980;-49
2022/07/16 05:12:41;;;;;;;;;;;;;;;20.35;65.46;95441.44;5133833;28;957;-49
2022/07/16 05:15:08;;;;;;;;;;;;;;;20.58;64.79;95428.19;5133467;28;1071;-49
2022/07/16 05:17:34;;;;;;;;;;;;;;;20.72;63.83;95439.03;5133789;28;1025;-49
2022/07/16 05:20:00;;;;;;;;;;;;;;;20.90;64.03;95432.84;5135374;27;1016;-49
2022/07/16 05:22:26;;;;;;;;;;;;;;;21.11;62.94;95442.53;5137319;27;963;-49
2022/07/16 05:24:52;;;;;;;;;;;;;;;21.62;61.23;95441.53;5137168;27;1986;-49
2022/07/16 05:27:18;;;;;;;;;;;;;;;22.32;59.95;95437.69;5136914;27;1008;-49
2022/07/16 05:29:44;;;;;;;;;;;;;;;22.82;58.25;95442.91;5137068;27;1012;-49
2022/07/16 05:32:10;;;;;;;;;;;;;;;23.00;58.01;95444.78;5136772;27;965;-49
2022/07/16 05:34:36;;;;;;;;;;;;;;;22.94;58.20;95448.44;5137062;27;1051;-50
2022/07/16 05:37:02;;;;;;;;;;;;;;;23.02;57.03;95450.00;5137000;27;953;-49
2022/07/16 05:39:28;;;;;;;;;;;;;;;23.17;57.15;95444.97;5137117;27;961;-49
2022/07/16 05:41:54;;;;;;;;;;;;;;;22.70;58.02;95451.03;5136890;27;1030;-49
2022/07/16 05:44:20;;;;;;;;;;;;;;;22.32;58.75;95456.75;5136606;27;1910;-49
2022/07/16 05:46:46;;;;;;;;;;;;;;;22.29;59.36;95458.06;5136691;27;1094;-49
2022/07/16 05:49:12;;;;;;;;;;;;;;;22.24;58.98;95463.31;5136977;27;957;-49
2022/07/16 05:51:38;;;;;;;;;;;;;;;22.20;59.62;95462.09;5136622;27;1115;-49
2022/07/16 05:54:04;;;;;;;;;;;;;;;22.23;60.35;95461.63;5136616;27;992;-49
2022/07/16 05:56:30;;;;;;;;;;;;;;;22.26;60.05;95455.78;5136475;27;1098;-49
2022/07/16 05:59:01;;;;;;;;;;;;;;;22.26;60.23;95457.69;5136623;27;1032;-49
2022/07/16 06:01:28;;;;;;;;;;;;;;;22.40;59.72;95461.91;5136635;27;1056;-49
2022/07/16 06:03:54;;;;;;;;;;;;;;;22.53;61.17;95461.72;5136653;27;1913;-49
2022/07/16 06:06:20;;;;;;;;;;;;;;;22.65;60.83;95463.69;5135971;27;1126;-50
2022/07/16 06:08:46;;;;;;;;;;;;;;;22.74;59.23;95457.69;5136580;27;1036;-49
2022/07/16 06:11:12;;;;;;;;;;;;;;;22.74;61.33;95462.31;5136183;27;1028;-50
2022/07/16 06:13:38;;;;;;;;;;;;;;;22.71;60.19;95454.59;5136334;27;1003;-50
2022/07/16 06:16:07;;;;;;;;;;;;;;;22.91;61.11;95457.06;5118160;27;1041;-50
2022/07/16 06:18:36;;;;;;;;;;;;;;;23.08;60.10;95441.72;5136407;27;1028;-49
2022/07/16 06:21:02;;;;;;;;;;;;;;;23.28;59.50;95441.44;5136504;27;953;-50
2022/07/16 06:23:28;;;;;;;;;;;;;;;23.35;58.53;95435.88;5136181;27;984;-49
2022/07/16 06:25:55;;;;;;;;;;;;;;;23.56;59.41;95427.13;5136019;27;1962;-50
2022/07/16 06:28:21;;;;;;;;;;;;;;;23.82;59.11;95433.22;5135757;27;1039;-50
2022/07/16 06:30:47;;;;;;;;;;;;;;;23.96;58.73;95434.66;5135557;27;1161;-49
2022/07/16 06:33:13;;;;;;;;;;;;;;;24.16;58.12;95431.53;5135857;27;1017;-50
2022/07/16 06:35:39;;;;;;;;;;;;;;;24.15;57.83;95435.34;5135678;27;1052;-50
2022/07/16 06:38:05;;;;;;;;;;;;;;;24.27;58.35;95427.13;5135818;27;1043;-50
2022/07/16 06:40:31;;;;;;;;;;;;;;;24.37;57.55;95437.44;5135749;27;1059;-50
2022/07/16 06:42:57;;;;;;;;;;;;;;;24.46;57.40;95426.97;5129780;27;1228;-50
2022/07/16 06:45:23;;;;;;;;;;;;;;;24.50;56.01;95426.25;5115229;28;1909;-50
2022/07/16 06:47:49;;;;;;;;;;;;;;;24.52;56.73;95418.66;5115106;28;981;-50
2022/07/16 06:50:15;;;;;;;;;;;;;;;24.50;57.32;95425.41;5114971;28;1215;-50
2022/07/16 06:52:41;;;;;;;;;;;;;;;24.70;56.27;95425.00;5129401;27;1091;-50
2022/07/16 06:55:07;;;;;;;;;;;;;;;24.85;56.33;95421.75;5135257;27;1080;-50
2022/07/16 06:57:33;;;;;;;;;;;;;;;24.89;56.67;95417.44;5135247;27;1040;-50
2022/07/16 06:59:59;;;;;;;;;;;;;;;25.03;56.64;95420.72;5135440;27;1036;-51
2022/07/16 07:02:25;;;;;;;;;;;;;;;25.07;56.17;95419.16;5135199;27;1008;-50
2022/07/16 07:04:51;;;;;;;;;;;;;;;25.13;56.57;95418.16;5135219;27;1995;-51
2022/07/16 07:07:17;;;;;;;;;;;;;;;25.27;56.13;95413.25;5135018;27;1083;-51
2022/07/16 07:09:43;;;;;;;;;;;;;;;25.43;55.73;95420.66;5135247;27;1091;-51
2022/07/16 07:12:09;;;;;;;;;;;;;;;25.57;55.06;95417.56;5134839;27;1146;-51
2022/07/16 07:14:35;;;;;;;;;;;;;;;25.64;55.44;95418.25;5135411;27;1059;-51
2022/07/16 07:17:01;;;;;;;;;;;;;;;25.74;55.48;95412.91;5135091;27;969;-51
2022/07/16 07:19:27;;;;;;;;;;;;;;;25.92;54.71;95416.53;5135028;27;1200;-52
2022/07/16 07:21:53;;;;;;;;;;;;;;;26.00;54.35;95416.91;5134892;27;977;-51
2022/07/16 07:24:19;;;;;;;;;;;;;;;26.12;54.32;95421.44;5134743;27;1910;-51
2022/07/16 07:26:45;;;;;;;;;;;;;;;26.08;53.61;95415.63;5134681;27;1012;-52
2022/07/16 07:29:11;;;;;;;;;;;;;;;26.25;53.49;95412.88;5134593;27;1080;-51
2022/07/16 07:31:37;;;;;;;;;;;;;;;26.30;52.80;95413.75;5134927;27;1038;-51
2022/07/16 07:34:03;;;;;;;;;;;;;;;26.19;50.53;95414.69;5134325;27;1044;-51
2022/07/16 07:36:29;;;;;;;;;;;;;;;26.35;52.31;95412.16;5134766;27;1047;-51
2022/07/16 07:38:55;;;;;;;;;;;;;;;26.51;53.17;95411.28;5134898;27;987;-51
2022/07/16 07:41:21;;;;;;;;;;;;;;;26.72;52.40;95420.63;5134419;27;1081;-51
2022/07/16 07:43:47;;;;;;;;;;;;;;;26.84;51.93;95417.72;5133508;27;1989;-51
2022/07/16 07:46:13;;;;;;;;;;;;;;;26.95;49.91;95424.97;5134640;27;1020;-52
2022/07/16 07:48:39;;;;;;;;;;;;;;;27.00;48.61;95425.03;5134316;27;1098;-51
2022/07/16 07:51:05;;;;;;;;;;;;;;;26.92;50.04;95406.31;5134186;27;1250;-51
2022/07/16 07:53:31;;;;;;;;;;;;;;;27.07;51.35;95425.69;5134241;27;1040;-51
2022/07/16 07:55:57;;;;;;;;;;;;;;;27.21;50.46;95411.53;5134357;27;1095;-50
2022/07/16 07:58:23;;;;;;;;;;;;;;;27.33;49.11;95414.97;5134533;27;1052;-51
2022/07/16 08:00:51;;;;;;;;;;;;;;;27.49;49.46;95410.44;5134501;27;980;-51
2022/07/16 08:03:17;;;;;;;;;;;;;;;27.68;48.74;95410.88;5134020;27;1870;-51
2022/07/16 08:05:42;;;;;;;;;;;;;;;27.83;48.72;95411.00;5133979;27;1909;-49
2022/07/16 08:08:08;;;;;;;;;;;;;;;27.94;48.69;95408.34;5134053;28;974;-50
2022/07/16 08:10:34;;;;;;;;;;;;;;;27.97;46.90;95410.56;5134192;28;1032;-50
2022/07/16 08:13:00;;;;;;;;;;;;;;;28.03;46.90;95406.75;5133864;28;1016;-51
2022/07/16 08:15:26;;;;;;;;;;;;;;;28.18;47.14;95409.59;5134410;28;1024;-51
2022/07/16 08:17:52;;;;;;;;;;;;;;;28.29;47.27;95402.22;5133942;28;1028;-50
2022/07/16 08:20:19;;;;;;;;;;;;;;;28.40;46.42;95408.59;5134145;28;974;-49
2022/07/16 08:22:45;;;;;;;;;;;;;;;28.51;46.61;95398.47;5133714;28;1009;-50
2022/07/16 08:27:56;;;;;;;;;;;;;;;28.74;46.54;95398.06;5134121;28;995;-50
2022/07/16 08:30:22;;;;;;;;;;;;;;;28.78;44.66;95393.66;5133777;28;1020;-50
2022/07/16 08:32:48;;;;;;;;;;;;;;;28.92;46.15;95402.22;5134075;28;962;-49
2022/07/16 08:35:14;;;;;;;;;;;;;;;29.07;44.86;95392.38;5133645;28;992;-49
2022/07/16 08:37:42;;;;;;;;;;;;;;;29.15;46.01;95384.41;5134042;28;972;-49
2022/07/16 08:40:09;;;;;;;;;;;;;;;29.14;44.68;95391.03;5133619;28;964;-49
2022/07/16 08:42:36;;;;;;;;;;;;;;;29.18;43.59;95391.31;5131131;28;1157;-49
2022/07/16 08:45:03;;;;;;;;;;;;;;;29.18;43.12;95392.13;5113159;28;2000;-49
2022/07/16 08:47:29;;;;;;;;;;;;;;;29.27;42.28;95389.66;5113455;28;1033;-50
2022/07/16 08:49:55;;;;;;;;;;;;;;;29.37;42.81;95386.09;5113254;28;1012;-50
2022/07/16 08:52:25;;;;;;;;;;;;;;;29.45;43.20;95395.75;5125108;28;1226;-50
2022/07/16 08:54:52;;;;;;;;;;;;;;;29.50;41.81;95388.31;5136678;27;1832;-50
2022/07/16 08:57:18;;;;;;;;;;;;;;;29.55;41.56;95390.22;5137650;27;1084;-50
2022/07/16 08:59:44;;;;;;;;;;;;;;;29.54;42.88;95383.91;5137697;27;977;-50
2022/07/16 09:02:13;;;;;;;;;;;;;;;29.65;42.64;95389.41;5137599;27;1055;-50
2022/07/16 09:04:40;;;;;;;;;;;;;;;29.76;42.66;95382.81;5137277;27;1992;-50
2022/07/16 09:07:05;;;;;;;;;;;;;;;29.83;41.54;95382.53;5137450;27;949;-50
2022/07/16 09:09:31;;;;;;;;;;;;;;;29.82;41.42;95381.69;5137266;27;1063;-50
2022/07/16 09:11:57;;;;;;;;;;;;;;;29.82;41.32;95383.63;5137436;27;909;-50
2022/07/16 09:14:23;;;;;;;;;;;;;;;29.79;40.63;95379.50;5137350;27;1185;-50
2022/07/16 09:16:52;;;;;;;;;;;;;;;29.67;39.04;95382.53;5137327;27;1020;-50
2022/07/16 09:19:18;;;;;;;;;;;;;;;29.76;39.89;95374.53;5137082;27;969;-50
2022/07/16 09:22:03;;;;;;;;;;;;;;;29.90;40.33;95380.31;5137283;27;1020;-50
2022/07/16 09:24:30;;;;;;;;;;;;;;;29.95;40.03;95372.03;5137248;27;1925;-50
2022/07/16 09:27:03;;;;;;;;;;;;;;;30.01;38.31;95372.84;5137351;27;1024;-50
2022/07/16 09:29:32;;;;;;;;;;;;;;;29.97;37.68;95375.34;5137182;27;959;-50
2022/07/16 09:31:58;;;;;;;;;;;;;;;29.96;38.30;95371.75;5137159;27;1866;-50
2022/07/16 09:34:24;;;;;;;;;;;;;;;29.97;38.27;95372.56;5136579;27;1139;-49
2022/07/16 09:36:55;;;;;;;;;;;;;;;30.00;38.49;95363.75;5137257;27;1040;-49
2022/07/16 09:39:21;;;;;;;;;;;;;;;30.13;38.21;95368.69;5136707;27;1037;-49
2022/07/16 09:41:47;;;;;;;;;;;;;;;30.33;38.51;95367.00;5137075;27;1023;-50
2022/07/16 09:44:16;;;;;;;;;;;;;;;30.42;38.25;95362.56;5136478;27;1905;-50
2022/07/16 09:47:03;;;;;;;;;;;;;;;30.40;37.37;95359.25;5136832;27;909;-50
2022/07/16 09:49:30;;;;;;;;;;;;;;;30.42;37.10;95354.28;5136533;27;1922;-51
2022/07/16 09:51:56;;;;;;;;;;;;;;;30.50;38.61;95364.72;5136813;27;1322;-50
2022/07/16 09:54:32;;;;;;;;;;;;;;;30.44;36.68;95357.59;5136560;27;1036;-50
2022/07/16 09:57:18;;;;;;;;;;;;;;;30.47;36.44;95356.22;5136788;27;1024;-50
2022/07/16 09:59:45;;;;;;;;;;;;;;;30.54;35.73;95352.03;5136771;27;1043;-50
2022/07/16 10:02:12;;;;;;;;;;;;;;;30.57;35.42;95347.06;5136706;27;1032;-50
2022/07/16 10:04:38;;;;;;;;;;;;;;;30.58;37.14;95346.75;5135928;27;1989;-50
2022/07/16 10:07:04;;;;;;;;;;;;;;;30.64;34.73;95348.41;5136119;27;936;-50
2022/07/16 10:09:31;;;;;;;;;;;;;;;30.69;34.87;95342.84;5136370;27;1042;-50
2022/07/16 10:12:01;;;;;;;;;;;;;;;30.82;35.34;95340.56;5136362;27;1076;-50
2022/07/16 10:14:27;;;;;;;;;;;;;;;30.87;34.22;95337.78;5136441;27;1028;-50
2022/07/16 10:16:57;;;;;;;;;;;;;;;30.98;34.42;95333.91;5136489;27;981;-50
2022/07/16 10:19:32;;;;;;;;;;;;;;;31.05;35.13;95322.50;5136070;27;1063;-50
2022/07/16 10:22:25;;;;;;;;;;;;;;;31.06;34.83;95330.50;5136323;27;953;-50
2022/07/16 10:24:53;;;;;;;;;;;;;;;30.99;34.86;95330.00;5104312;27;1964;-50
2022/07/16 10:27:27;;;;;;;;;;;;;;;30.98;34.82;95333.03;5136221;27;1046;-50
2022/07/16 10:30:15;;;;;;;;;;;;;;;30.99;34.54;95326.44;5136103;27;1032;-50
2022/07/16 10:32:59;;;;;;;;;;;;;;;30.90;34.06;95320.69;5136010;27;1107;-50
2022/07/16 10:35:27;;;;;;;;;;;;;;;30.91;34.96;95327.84;5135966;27;981;-50
2022/07/16 10:38:04;;;;;;;;;;;;;;;30.99;35.29;95324.47;5136128;27;1015;-50
2022/07/16 10:40:30;;;;;;;;;;;;;;;31.00;34.43;95323.38;5135845;27;1031;-50
2022/07/16 10:43:13;;;;;;;;;;;;;;;31.04;35.42;95309.84;5130029;27;1157;-50
2022/07/16 10:45:59;;;;;;;;;;;;;;;31.01;34.61;95316.72;5114939;28;1913;-50
2022/07/16 10:48:27;;;;;;;;;;;;;;;30.99;33.30;95309.88;5115083;28;1746;-50
2022/07/16 10:51:12;;;;;;;;;;;;;;;30.94;32.93;95316.22;5115061;28;917;-50
2022/07/16 10:53:56;;;;;;;;;;;;;;;31.00;32.68;95308.72;5115074;28;1033;-50
2022/07/16 10:56:37;;;;;;;;;;;;;;;31.07;35.19;95304.53;5114700;28;1111;-49
2022/07/16 10:59:09;;;;;;;;;;;;;;;31.12;34.05;95304.50;5115028;28;1032;-49
2022/07/16 11:01:36;;;;;;;;;;;;;;;31.13;33.62;95303.41;5114826;28;1029;-50
2022/07/16 11:04:03;;;;;;;;;;;;;;;31.19;33.18;95301.44;5114548;28;2001;-50
2022/07/16 11:06:29;;;;;;;;;;;;;;;31.23;31.26;95296.97;5114596;28;1020;-50
2022/07/16 11:08:56;;;;;;;;;;;;;;;31.21;32.10;95301.13;5114966;28;1124;-50
2022/07/16 11:11:23;;;;;;;;;;;;;;;31.23;30.55;95294.22;5114632;28;961;-50
2022/07/16 11:13:52;;;;;;;;;;;;;;;31.23;30.74;95293.41;5114842;28;1047;-50
2022/07/16 11:16:18;;;;;;;;;;;;;;;31.20;29.55;95286.50;5114314;28;1024;-49
2022/07/16 11:18:44;;;;;;;;;;;;;;;31.28;30.41;95293.34;5114558;28;1111;-49
2022/07/16 11:21:10;;;;;;;;;;;;;;;31.27;30.74;95288.94;5114211;28;1040;-50
2022/07/16 11:24:09;;;;;;;;;;;;;;;31.31;30.47;95282.53;5114718;28;992;-50
2022/07/16 11:26:35;;;;;;;;;;;;;;;31.41;30.51;95289.09;5069271;28;1388;-50
2022/07/16 11:29:02;;;;;;;;;;;;;;;31.45;30.95;95290.16;5096310;28;1005;-50
2022/07/16 11:31:31;;;;;;;;;;;;;;;31.47;30.95;95282.44;5114103;28;1027;-50
2022/07/16 11:33:58;;;;;;;;;;;;;;;31.50;31.18;95284.63;5114576;28;1096;-50
2022/07/16 11:36:28;;;;;;;;;;;;;;;31.44;29.71;95285.75;5114031;28;1013;-49
2022/07/16 11:39:00;;;;;;;;;;;;;;;31.35;30.12;95276.44;5114388;28;1029;-49
2022/07/16 11:41:26;;;;;;;;;;;;;;;31.38;31.09;95270.31;5114124;28;958;-50
2022/07/16 11:43:52;;;;;;;;;;;;;;;31.44;30.19;95270.00;5127519;27;1992;-49
2022/07/16 11:46:26;;;;;;;;;;;;;;;31.57;29.59;95264.91;5134391;27;964;-49
2022/07/16 11:48:52;;;;;;;;;;;;;;;31.66;29.56;95260.41;5134836;27;957;-50
2022/07/16 11:54:58;;;;;;;;;;;;;;;31.70;29.35;95256.78;3028022;27;2261;-50
2022/07/16 11:57:25;;;;;;;;;;;;;;;31.69;30.15;95252.38;5134375;27;1091;-56
2022/07/16 11:59:52;;;;;;;;;;;;;;;31.72;30.56;95242.69;5134757;27;1020;-50
2022/07/16 12:02:20;;;;;;;;;;;;;;;31.41;30.15;95245.69;5134163;27;1234;-50
2022/07/16 12:04:47;;;;;;;;;;;;;;;31.04;29.40;95241.63;5134123;27;1909;-50
2022/07/16 12:07:25;;;;;;;;;;;;;;;30.78;30.57;95252.00;5134095;28;1011;-50
2022/07/16 12:09:52;;;;;;;;;;;;;;;30.63;31.61;95254.88;5134372;28;1056;-49
2022/07/16 12:12:19;;;;;;;;;;;;;;;30.90;29.59;95248.91;5134208;28;961;-49
2022/07/16 12:15:02;;;;;;;;;;;;;;;31.12;30.30;95254.00;5134426;28;1217;-49
2022/07/16 12:17:28;;;;;;;;;;;;;;;31.12;30.08;95259.50;5133974;28;977;-49
2022/07/16 12:20:06;;;;;;;;;;;;;;;31.08;28.70;95250.97;5134482;28;1040;-50
2022/07/16 12:22:47;;;;;;;;;;;;;;;31.00;30.12;95243.31;5134081;28;1051;-50
2022/07/16 12:25:22;;;;;;;;;;;;;;;30.90;29.14;95246.16;5134071;28;1909;-49
2022/07/16 12:27:49;;;;;;;;;;;;;;;30.83;29.56;95245.59;5134043;27;948;-49
2022/07/16 12:30:16;;;;;;;;;;;;;;;30.74;32.99;95242.66;5138000;27;962;-49
2022/07/16 12:32:49;;;;;;;;;;;;;;;30.66;29.36;95240.50;5138450;27;1190;-48
2022/07/16 12:35:53;;;;;;;;;;;;;;;30.54;32.53;95244.44;5138168;27;958;-48
2022/07/16 12:38:38;;;;;;;;;;;;;;;30.48;32.93;95242.81;5054400;28;1145;-48
2022/07/16 12:41:05;;;;;;;;;;;;;;;30.46;32.54;95247.78;5054637;28;1153;-49
2022/07/16 12:43:32;;;;;;;;;;;;;;;30.48;32.94;95250.25;5094490;27;1216;-49
2022/07/16 12:45:59;;;;;;;;;;;;;;;30.49;33.51;95249.16;5117463;28;1972;-49
2022/07/16 12:48:26;;;;;;;;;;;;;;;30.41;35.23;95261.63;5117415;28;1047;-49
2022/07/16 12:50:52;;;;;;;;;;;;;;;30.24;35.66;95269.38;5117403;28;1079;-49
2022/07/16 12:53:18;;;;;;;;;;;;;;;30.08;36.09;95258.41;5117134;28;1253;-49
2022/07/16 13:01:13;;;;;;;;;;;;;;;29.92;36.44;95256.84;5137786;27;1189;-49
2022/07/16 13:03:40;;;;;;;;;;;;;;;29.87;36.98;95254.09;5137587;27;1043;-49
2022/07/16 13:06:06;;;;;;;;;;;;;;;29.86;36.67;95261.56;5137611;27;1973;-49
2022/07/16 13:08:32;;;;;;;;;;;;;;;29.87;37.09;95265.13;5137493;27;1015;-48
2022/07/16 13:10:58;;;;;;;;;;;;;;;29.83;37.00;95264.03;5137766;27;952;-48
2022/07/16 13:13:24;;;;;;;;;;;;;;;29.81;36.79;95261.56;5137195;27;1079;-48
2022/07/16 13:15:50;;;;;;;;;;;;;;;29.79;37.06;95266.53;5137519;27;1044;-48